createdAt,value
2019-01-29T00:00:25.364Z,0.40
2019-01-29T00:05:28.500Z,0.33
2019-01-29T00:10:29.925Z,0.25
2019-01-29T00:15:31.356Z,0.23
2019-01-29T00:20:32.889Z,0.27
2019-01-29T00:25:34.414Z,0.27
2019-01-29T00:30:35.857Z,0.26
2019-01-29T00:35:37.335Z,0.22
2019-01-29T00:40:38.786Z,0.25
2019-01-29T00:45:40.237Z,0.18
2019-01-29T00:50:41.669Z,0.15
2019-01-29T00:55:43.148Z,0.13
2019-01-29T01:00:44.684Z,0.15
2019-01-29T01:05:46.222Z,0.13
2019-01-29T01:10:47.658Z,0.10
2019-01-29T01:15:49.398Z,0.03
2019-01-29T01:20:50.927Z,-0.06
2019-01-29T01:25:52.394Z,-0.08
2019-01-29T01:30:53.862Z,-0.11
2019-01-29T01:35:55.394Z,-0.15
2019-01-29T01:40:56.979Z,-0.12
2019-01-29T01:45:58.404Z,-0.14
2019-01-29T01:50:59.831Z,-0.22
2019-01-29T01:56:02.576Z,-0.18
2019-01-29T02:01:04.353Z,-0.18
2019-01-29T02:06:05.868Z,-0.17
2019-01-29T02:11:07.304Z,-0.20
2019-01-29T02:16:08.752Z,-0.23
2019-01-29T02:21:10.181Z,-0.28
2019-01-29T02:26:11.654Z,-0.33
2019-01-29T02:31:13.082Z,-0.45
2019-01-29T02:36:14.611Z,-0.44
2019-01-29T02:41:16.078Z,-0.40
2019-01-29T02:46:17.549Z,-0.39
2019-01-29T02:51:18.989Z,-0.39
2019-01-29T02:56:20.416Z,-0.42
2019-01-29T03:01:21.943Z,-0.45
2019-01-29T03:06:23.383Z,-0.41
2019-01-29T03:11:24.901Z,-0.39
2019-01-29T03:16:26.392Z,-0.42
2019-01-29T03:21:27.834Z,-0.45
2019-01-29T03:26:29.265Z,-0.43
2019-01-29T03:31:30.701Z,-0.43
2019-01-29T03:36:32.127Z,-0.35
2019-01-29T03:41:33.706Z,-0.26
2019-01-29T03:46:35.180Z,-0.16
2019-01-29T03:51:36.645Z,-0.09
2019-01-29T03:56:38.078Z,-0.02
2019-01-29T04:01:39.601Z,0.03
2019-01-29T04:06:41.037Z,0.05
2019-01-29T04:11:42.466Z,-0.01
2019-01-29T04:16:43.955Z,-0.09
2019-01-29T04:21:45.588Z,-0.12
2019-01-29T04:26:47.020Z,-0.12
2019-01-29T04:31:48.449Z,-0.14
2019-01-29T04:36:49.875Z,-0.21
2019-01-29T04:41:51.382Z,-0.22
2019-01-29T04:46:52.819Z,-0.29
2019-01-29T04:51:54.257Z,-0.35
2019-01-29T04:56:55.737Z,-0.37
2019-01-29T05:01:57.166Z,-0.38
2019-01-29T05:06:58.695Z,-0.39
2019-01-29T05:12:00.126Z,-0.41
2019-01-29T05:17:01.556Z,-0.46
2019-01-29T05:22:03.592Z,-0.48
2019-01-29T05:27:05.140Z,-0.49
2019-01-29T05:32:06.735Z,-0.51
2019-01-29T05:37:08.173Z,-0.48
2019-01-29T05:42:09.746Z,-0.46
2019-01-29T05:47:11.178Z,-0.39
2019-01-29T05:52:12.702Z,-0.33
2019-01-29T05:57:14.192Z,-0.30
2019-01-29T06:02:15.615Z,-0.30
2019-01-29T06:07:17.046Z,-0.25
2019-01-29T06:12:18.577Z,-0.20
2019-01-29T06:17:27.414Z,-0.22
2019-01-29T06:22:23.461Z,-0.17
2019-01-29T06:27:24.937Z,-0.12
2019-01-29T06:32:26.369Z,-0.08
2019-01-29T06:37:27.798Z,-0.06
2019-01-29T06:42:29.273Z,-0.01
2019-01-29T06:47:30.862Z,0.30
2019-01-29T06:52:32.281Z,0.18
2019-01-29T06:57:33.694Z,0.16
2019-01-29T07:02:35.135Z,0.24
2019-01-29T07:07:36.573Z,0.37
2019-01-29T07:12:37.999Z,0.48
2019-01-29T07:17:41.093Z,0.90
2019-01-29T07:22:42.533Z,1.11
2019-01-29T07:27:43.964Z,1.26
2019-01-29T07:32:45.391Z,0.99
2019-01-29T07:37:46.820Z,0.86
2019-01-29T07:42:48.292Z,0.78
2019-01-29T07:47:49.933Z,0.72
2019-01-29T07:52:53.713Z,0.66
2019-01-29T07:57:55.210Z,0.61
2019-01-29T08:02:56.785Z,0.61
2019-01-29T08:07:58.296Z,0.63
2019-01-29T08:13:00.831Z,0.66
2019-01-29T08:18:03.457Z,0.67
2019-01-29T08:23:05.193Z,0.65
2019-01-29T08:28:06.621Z,0.65
2019-01-29T08:33:08.122Z,0.62
2019-01-29T08:38:09.665Z,0.63
2019-01-29T08:43:11.140Z,0.66
2019-01-29T08:48:12.751Z,0.71
2019-01-29T08:53:14.184Z,0.76
2019-01-29T08:58:15.618Z,0.81
2019-01-29T09:03:17.313Z,0.88
2019-01-29T09:08:18.747Z,0.94
2019-01-29T09:13:20.185Z,1.03
2019-01-29T09:18:21.636Z,1.05
2019-01-29T09:23:23.056Z,1.06
2019-01-29T09:28:24.477Z,1.02
2019-01-29T09:33:26.259Z,0.93
2019-01-29T09:38:27.741Z,0.85
2019-01-29T09:43:29.429Z,0.80
2019-01-29T09:48:30.857Z,0.77
2019-01-29T09:53:34.192Z,0.78
2019-01-29T09:58:35.639Z,0.97
2019-01-29T10:03:37.063Z,1.08
2019-01-29T10:08:38.552Z,1.17
2019-01-29T10:13:39.989Z,1.28
2019-01-29T10:18:41.412Z,1.46
2019-01-29T10:23:42.847Z,1.68
2019-01-29T10:28:44.270Z,1.97
2019-01-29T10:33:45.797Z,2.46
2019-01-29T10:38:47.305Z,2.84
2019-01-29T10:43:48.889Z,3.01
2019-01-29T10:48:50.365Z,2.72
2019-01-29T10:53:51.805Z,2.50
2019-01-29T10:58:53.243Z,2.31
2019-01-29T11:03:54.973Z,2.22
2019-01-29T11:08:56.655Z,2.16
2019-01-29T11:13:58.082Z,2.18
2019-01-29T11:19:03.389Z,2.13
2019-01-29T11:24:04.662Z,2.04
2019-01-29T11:29:06.590Z,1.90
2019-01-29T11:34:08.189Z,1.83
2019-01-29T11:39:10.236Z,1.72
2019-01-29T11:44:12.011Z,1.68
2019-01-29T11:49:13.435Z,1.62
2019-01-29T11:54:14.862Z,1.57
2019-01-29T11:59:16.289Z,1.56
2019-01-29T12:04:17.785Z,1.49
2019-01-29T12:09:19.313Z,1.46
2019-01-29T12:14:20.751Z,1.48
2019-01-29T12:19:22.192Z,1.45
2019-01-29T12:24:23.733Z,1.51
2019-01-29T12:29:25.174Z,1.51
2019-01-29T12:34:26.648Z,1.59
2019-01-29T12:39:29.081Z,1.72
2019-01-29T12:44:30.563Z,1.82
2019-01-29T12:49:32.141Z,1.72
2019-01-29T12:54:33.689Z,1.68
2019-01-29T12:59:35.125Z,1.57
2019-01-29T13:04:36.660Z,1.47
2019-01-29T13:09:38.093Z,1.40
2019-01-29T13:14:39.522Z,1.34
2019-01-29T13:19:40.988Z,1.37
2019-01-29T13:24:42.437Z,1.33
2019-01-29T13:29:43.878Z,1.28
2019-01-29T13:34:45.307Z,1.25
2019-01-29T13:39:46.744Z,1.24
2019-01-29T13:44:48.215Z,1.17
2019-01-29T13:49:49.709Z,1.11
2019-01-29T13:54:51.146Z,1.09
2019-01-29T13:59:52.589Z,1.09
2019-01-29T14:04:54.027Z,1.09
2019-01-29T14:09:55.640Z,1.11
2019-01-29T14:14:57.632Z,1.08
2019-01-29T14:19:59.108Z,1.08
2019-01-29T14:25:00.658Z,1.13
2019-01-29T14:30:07.736Z,1.10
2019-01-29T14:35:10.008Z,1.14
2019-01-29T14:40:16.355Z,1.11
2019-01-29T14:45:19.443Z,1.03
2019-01-29T14:50:21.844Z,0.98
2019-01-29T14:55:24.280Z,0.95
2019-01-29T15:00:32.830Z,0.92
2019-01-29T15:05:35.473Z,0.93
2019-01-29T15:10:37.001Z,0.93
2019-01-29T15:15:52.489Z,0.95
2019-01-29T15:20:53.958Z,0.96
2019-01-29T15:25:55.665Z,0.90
2019-01-29T15:30:57.211Z,0.87
2019-01-29T15:35:58.794Z,0.84
2019-01-29T15:41:00.224Z,0.89
2019-01-29T15:46:02.034Z,0.88
2019-01-29T15:51:04.071Z,0.88
2019-01-29T15:56:05.701Z,0.85
2019-01-29T16:01:07.340Z,0.87
2019-01-29T16:06:08.779Z,0.83
2019-01-29T16:11:10.305Z,0.87
2019-01-29T16:16:11.740Z,0.89
2019-01-29T16:21:13.400Z,0.87
2019-01-29T16:26:14.896Z,0.83
2019-01-29T16:36:18.830Z,0.85
2019-01-29T16:41:20.448Z,0.81
2019-01-29T16:49:27.335Z,0.88
2019-01-29T16:54:28.875Z,0.85
2019-01-29T16:59:30.277Z,0.88
2019-01-29T17:04:31.972Z,0.84
2019-01-29T17:09:33.405Z,0.79
2019-01-29T17:14:35.031Z,0.70
2019-01-29T17:19:41.694Z,0.64
2019-01-29T17:24:43.125Z,0.53
2019-01-29T17:29:45.754Z,0.45
2019-01-29T17:34:47.270Z,0.40
2019-01-29T17:39:48.910Z,0.40
2019-01-29T17:44:50.350Z,0.33
2019-01-29T17:49:51.826Z,0.35
2019-01-29T17:54:53.554Z,0.33
2019-01-29T17:59:55.089Z,0.30
2019-01-29T18:04:56.583Z,0.28
2019-01-29T18:09:58.109Z,0.18
2019-01-29T18:14:59.649Z,0.17
2019-01-29T18:20:01.127Z,0.22
2019-01-29T18:25:07.674Z,0.28
2019-01-29T18:30:19.490Z,0.31
2019-01-29T18:35:21.326Z,0.34
2019-01-29T18:40:39.678Z,0.38
2019-01-29T18:45:44.814Z,0.35
2019-01-29T18:50:46.385Z,0.31
2019-01-29T18:55:47.818Z,0.37
2019-01-29T19:00:54.654Z,0.38
2019-01-29T19:05:52.800Z,0.37
2019-01-29T19:10:54.619Z,0.32
2019-01-29T19:15:56.265Z,0.30
2019-01-29T19:20:57.754Z,0.26
2019-01-29T19:25:59.190Z,0.25
2019-01-29T19:31:01.706Z,0.23
2019-01-29T19:36:03.542Z,0.27
2019-01-29T19:41:05.069Z,0.29
2019-01-29T19:46:06.669Z,0.35
2019-01-29T19:51:08.276Z,0.30
2019-01-29T19:56:09.705Z,0.25
2019-01-29T20:01:11.284Z,0.24
2019-01-29T20:06:12.709Z,0.25
2019-01-29T20:11:14.386Z,0.25
2019-01-29T20:16:16.208Z,0.28
2019-01-29T20:21:17.769Z,0.27
2019-01-29T20:26:19.293Z,0.22
2019-01-29T20:31:20.831Z,0.20
2019-01-29T20:36:22.459Z,0.17
2019-01-29T20:41:23.885Z,0.16
2019-01-29T20:46:25.549Z,0.13
2019-01-29T20:51:27.062Z,0.14
2019-01-29T20:56:29.489Z,0.12
2019-01-29T21:01:31.353Z,0.13
2019-01-29T21:06:32.777Z,0.13
2019-01-29T21:11:34.209Z,0.11
2019-01-29T21:16:35.782Z,0.12
2019-01-29T21:21:37.354Z,0.12
2019-01-29T21:26:38.790Z,0.18
2019-01-29T21:31:40.281Z,0.18
2019-01-29T21:36:41.913Z,0.16
2019-01-29T21:41:43.337Z,0.15
2019-01-29T21:46:44.838Z,0.11
2019-01-29T21:51:46.366Z,0.11
2019-01-29T21:56:49.850Z,0.09
2019-01-29T22:01:51.298Z,0.09
2019-01-29T22:06:52.778Z,0.08
2019-01-29T22:11:55.307Z,0.12
2019-01-29T22:16:56.733Z,0.12
2019-01-29T22:21:58.254Z,0.10
2019-01-29T22:26:59.688Z,0.11
2019-01-29T22:32:01.121Z,0.09
2019-01-29T22:37:02.897Z,0.01
2019-01-29T22:42:05.643Z,0.01
2019-01-29T22:47:07.131Z,-0.06
2019-01-29T22:52:08.897Z,-0.08
2019-01-29T22:57:10.325Z,-0.07
2019-01-29T23:02:12.074Z,-0.05
2019-01-29T23:07:13.987Z,-0.05
2019-01-29T23:12:15.824Z,-0.08
2019-01-29T23:17:17.560Z,-0.08
2019-01-29T23:22:19.096Z,-0.09
2019-01-29T23:27:20.531Z,-0.09
2019-01-29T23:32:22.159Z,-0.14
2019-01-29T23:37:23.728Z,-0.17
2019-01-29T23:42:25.330Z,-0.23
2019-01-29T23:47:26.747Z,-0.25
2019-01-29T23:52:28.342Z,-0.28
2019-01-29T23:57:29.777Z,-0.21
